Time;durP1;ratioP1;P1;durP2;ratioP2;P2;SDS_P1;SDS_P2;PMS_P1;PMS_P2;Temp;Humidity;BMP_temperature;BMP_pressure;BME280_temperature;BME280_humidity;BME280_pressure;Samples;Min_cycle;Max_cycle;Signal;HPM_P1;HPM_P2
2022/04/27 00:01:24;;;;;;;44.88;17.40;;;;;;;10.48;50.31;101081.77;1675244;84;25713;-75
2022/04/27 00:03:50;;;;;;;55.17;19.50;;;;;;;10.43;50.44;101083.74;1666912;84;99175;-74
2022/04/27 00:06:18;;;;;;;43.95;16.87;;;;;;;10.38;50.57;101088.42;1659048;84;25798;-75
2022/04/27 00:08:45;;;;;;;40.80;17.00;;;;;;;10.33;50.66;101091.27;1644475;85;26614;-75
2022/04/27 00:11:12;;;;;;;36.53;14.53;;;;;;;10.27;50.79;101089.27;1641985;85;99247;-75
2022/04/27 00:13:40;;;;;;;40.98;15.95;;;;;;;10.21;50.87;101080.10;1659589;85;26138;-75
2022/04/27 00:16:06;;;;;;;39.60;14.65;;;;;;;10.16;50.94;101079.36;1637437;85;99153;-75
2022/04/27 00:18:32;;;;;;;27.55;13.60;;;;;;;10.11;51.05;101079.52;1665213;85;25874;-76
2022/04/27 00:21:00;;;;;;;33.47;13.27;;;;;;;10.06;51.10;101085.48;1638212;85;99192;-75
2022/04/27 00:23:29;;;;;;;32.55;13.72;;;;;;;10.03;51.14;101086.94;1661714;84;25900;-76
2022/04/27 00:25:55;;;;;;;48.68;13.60;;;;;;;9.97;51.22;101075.09;1643335;85;25347;-76
2022/04/27 00:28:26;;;;;;;40.88;14.20;;;;;;;9.93;51.28;101081.02;1658160;85;99322;-75
2022/04/27 00:30:55;;;;;;;40.23;13.98;;;;;;;9.87;51.43;101080.34;1643040;85;25788;-76
2022/04/27 00:33:20;;;;;;;32.55;13.75;;;;;;;9.84;51.49;101085.80;1669229;84;99517;-74
2022/04/27 00:35:46;;;;;;;43.10;13.53;;;;;;;9.80;51.57;101087.70;1673496;84;25880;-75
2022/04/27 00:38:12;;;;;;;35.17;13.18;;;;;;;9.76;51.63;101084.25;1664840;84;25772;-75
2022/04/27 00:40:38;;;;;;;30.23;11.57;;;;;;;9.74;51.76;101087.91;1661492;85;99358;-75
2022/04/27 00:43:08;;;;;;;31.77;11.78;;;;;;;9.72;51.84;101091.09;1643954;85;25920;-75
2022/04/27 00:45:34;;;;;;;27.37;12.90;;;;;;;9.71;51.91;101089.34;1673287;83;99000;-75
2022/04/27 00:48:00;;;;;;;28.10;12.53;;;;;;;9.71;51.93;101089.34;1675072;84;26011;-75
2022/04/27 00:50:26;;;;;;;27.17;11.33;;;;;;;9.69;52.01;101091.20;1675549;84;25819;-74
2022/04/27 00:52:54;;;;;;;23.15;11.43;;;;;;;9.68;52.04;101097.47;1671788;84;98926;-74
2022/04/27 00:55:21;;;;;;;23.83;10.93;;;;;;;9.67;52.08;101095.26;1658598;85;25815;-75
2022/04/27 00:57:48;;;;;;;25.08;9.90;;;;;;;9.70;52.15;101095.63;1642516;85;98087;-75
2022/04/27 01:00:18;;;;;;;25.88;11.93;;;;;;;9.69;52.18;101094.75;1646003;85;26837;-74
2022/04/27 01:02:46;;;;;;;23.83;11.70;;;;;;;9.70;52.21;101095.16;1661639;84;25777;-75
2022/04/27 01:05:13;;;;;;;29.02;11.50;;;;;;;9.70;52.26;101095.16;1641396;85;99145;-74
2022/04/27 01:07:41;;;;;;;28.55;11.35;;;;;;;9.69;52.28;101092.07;1664653;84;25731;-74
2022/04/27 01:10:12;;;;;;;29.82;11.68;;;;;;;9.70;52.33;101096.96;1628307;85;98823;-74
2022/04/27 01:12:37;;;;;;;27.50;10.82;;;;;;;9.69;52.37;101094.75;1671664;83;26087;-75
2022/04/27 01:15:07;;;;;;;24.72;9.88;;;;;;;9.68;52.39;101100.15;1671529;84;99379;-74
2022/04/27 01:17:33;;;;;;;28.92;10.58;;;;;;;9.68;52.40;101104.16;1658102;84;27311;-75
2022/04/27 01:20:00;;;;;;;27.65;9.70;;;;;;;9.68;52.38;101104.16;1646228;85;25483;-75
2022/04/27 01:22:28;;;;;;;23.87;9.88;;;;;;;9.66;52.39;101110.91;1660722;85;98781;-75
2022/04/27 01:24:57;;;;;;;20.90;9.50;;;;;;;9.64;52.40;101114.09;1659165;84;26068;-75
2022/04/27 01:27:25;;;;;;;26.45;10.75;;;;;;;9.61;52.40;101107.50;1654261;85;98937;-75
2022/04/27 01:29:52;;;;;;;22.30;10.32;;;;;;;9.61;52.43;101111.98;1673923;84;29051;-74
2022/04/27 01:32:18;;;;;;;22.00;9.65;;;;;;;9.59;52.42;101115.17;1670935;84;27117;-74
2022/04/27 01:34:44;;;;;;;24.70;11.60;;;;;;;9.56;52.43;101114.80;1662525;84;98731;-75
2022/04/27 01:39:54;;;;;;;22.27;11.05;;;;;;;9.49;52.45;101116.38;1664685;84;98576;-73
2022/04/27 01:42:21;;;;;;;26.62;11.43;;;;;;;9.46;52.45;101121.83;1641836;85;27416;-74
2022/04/27 01:44:48;;;;;;;21.17;10.63;;;;;;;9.41;52.46;101129.53;1670627;84;26547;-74
2022/04/27 01:47:14;;;;;;;26.37;10.70;;;;;;;9.37;52.45;101127.00;1671840;84;98571;-75
2022/04/27 01:49:41;;;;;;;24.45;11.30;;;;;;;9.32;52.51;101136.50;1650354;86;27614;-74
2022/04/27 01:54:52;;;;;;;23.25;11.28;;;;;;;9.25;52.61;101130.05;1644396;86;27515;-74
2022/04/27 01:57:20;;;;;;;21.90;11.55;;;;;;;9.22;52.67;101133.69;1642713;85;98904;-74
2022/04/27 01:59:47;;;;;;;27.93;11.25;;;;;;;9.19;52.67;101132.91;1671958;83;25895;-74
2022/04/27 02:02:15;;;;;;;26.35;11.38;;;;;;;9.16;52.72;101139.22;1676001;84;25787;-74
2022/04/27 02:04:42;;;;;;;27.02;10.60;;;;;;;9.14;52.77;101133.05;1671695;84;98759;-74
2022/04/27 02:07:11;;;;;;;22.42;11.03;;;;;;;9.12;52.80;101133.55;1660063;85;28877;-75
2022/04/27 02:09:38;;;;;;;20.48;10.95;;;;;;;9.11;52.84;101139.36;1641356;85;98796;-74
2022/04/27 02:12:08;;;;;;;27.10;11.60;;;;;;;9.10;52.90;101132.25;1664202;84;25773;-75
2022/04/27 02:14:35;;;;;;;21.12;11.68;;;;;;;9.11;52.93;101137.14;1643719;85;25815;-75
2022/04/27 02:17:01;;;;;;;23.95;9.95;;;;;;;9.10;52.98;101138.06;1662531;84;98907;-74
2022/04/27 02:19:31;;;;;;;23.02;11.38;;;;;;;9.09;52.96;101140.33;1670249;83;29544;-74
2022/04/27 02:21:58;;;;;;;20.20;10.60;;;;;;;9.07;53.08;101137.70;1669103;84;98762;-75
2022/04/27 02:24:26;;;;;;;26.00;11.35;;;;;;;9.05;53.10;101142.21;1672339;84;25663;-74
2022/04/27 02:26:55;;;;;;;24.70;10.90;;;;;;;9.05;53.14;101144.01;1661748;85;98961;-74
2022/04/27 02:29:22;;;;;;;26.62;12.10;;;;;;;9.02;53.16;101146.77;1640499;85;26295;-74
2022/04/27 02:31:50;;;;;;;21.50;10.38;;;;;;;9.00;53.20;101147.27;1659244;84;27464;-74
2022/04/27 02:34:16;;;;;;;22.77;10.45;;;;;;;8.96;53.25;101149.63;1648888;85;98793;-74
2022/04/27 02:36:43;;;;;;;25.97;12.90;;;;;;;8.92;53.30;101146.16;1650314;85;25815;-74
2022/04/27 02:39:10;;;;;;;20.08;11.35;;;;;;;8.89;53.35;101148.92;1644343;85;98882;-74
2022/04/27 02:41:36;;;;;;;24.47;11.70;;;;;;;8.86;53.41;101146.79;1647645;85;25770;-74
2022/04/27 02:44:02;;;;;;;21.93;11.75;;;;;;;8.82;53.42;101143.78;1662857;85;27865;-74
2022/04/27 02:46:28;;;;;;;21.65;11.25;;;;;;;8.79;53.46;101146.09;1642570;85;98876;-74
2022/04/27 02:51:51;;;;;;;21.40;12.25;;;;;;;8.73;53.50;101151.14;1645529;85;99141;-74
2022/04/27 02:54:20;;;;;;;23.15;10.65;;;;;;;8.70;53.57;101149.89;1639667;85;25330;-76
2022/04/27 02:56:48;;;;;;;25.17;11.10;;;;;;;8.67;53.56;101147.30;1642622;85;27609;-75
2022/04/27 02:59:16;;;;;;;24.25;11.45;;;;;;;8.65;53.65;101154.48;1639104;86;98491;-76
2022/04/27 03:01:42;;;;;;;26.45;11.38;;;;;;;8.64;53.67;101149.19;1640137;85;25798;-75
2022/04/27 03:04:12;;;;;;;20.55;10.70;;;;;;;8.63;53.70;101156.78;1641406;85;98814;-74
2022/04/27 03:06:38;;;;;;;26.50;11.80;;;;;;;8.64;53.79;101159.88;1658917;84;25741;-75
2022/04/27 03:09:03;;;;;;;23.98;10.45;;;;;;;8.66;53.83;101162.05;1648851;85;98937;-74
2022/04/27 03:11:30;;;;;;;22.17;10.93;;;;;;;8.65;53.87;101167.84;1653178;85;25891;-75
2022/04/27 03:13:57;;;;;;;23.98;10.45;;;;;;;8.67;53.89;101165.13;1649785;85;25967;-75
2022/04/27 03:16:22;;;;;;;19.30;9.80;;;;;;;8.68;53.92;101169.56;1652182;85;98725;-74
2022/04/27 03:18:52;;;;;;;22.40;10.88;;;;;;;8.69;53.93;101173.53;1648727;85;25936;-75
2022/04/27 03:21:18;;;;;;;24.00;11.08;;;;;;;8.70;53.99;101171.73;1649044;85;99487;-74
2022/04/27 03:23:44;;;;;;;22.10;10.30;;;;;;;8.72;54.02;101171.23;1661432;84;25798;-75
2022/04/27 03:26:10;;;;;;;19.95;11.25;;;;;;;8.74;54.03;101177.41;1662260;84;25747;-74
2022/04/27 03:28:37;;;;;;;20.40;10.95;;;;;;;8.75;54.05;101176.03;1648061;86;98879;-75
2022/04/27 03:31:05;;;;;;;21.73;11.20;;;;;;;8.76;54.12;101183.59;1650886;85;25849;-74
2022/04/27 03:33:32;;;;;;;24.90;10.98;;;;;;;8.77;54.16;101183.55;1648867;85;99041;-74
2022/04/27 03:35:58;;;;;;;26.35;11.95;;;;;;;8.79;54.19;101188.39;1652607;84;26126;-74
2022/04/27 03:38:24;;;;;;;26.80;11.95;;;;;;;8.82;54.23;101185.22;1664874;84;25781;-74
2022/04/27 03:40:52;;;;;;;25.32;11.68;;;;;;;8.81;54.25;101187.02;1646032;85;98735;-74
2022/04/27 03:43:18;;;;;;;23.55;11.00;;;;;;;8.78;54.29;101187.09;1670845;84;26408;-74
2022/04/27 03:45:44;;;;;;;23.92;11.35;;;;;;;8.83;54.31;101192.31;1645140;85;98743;-74
2022/04/27 03:48:09;;;;;;;28.50;12.30;;;;;;;8.85;54.34;101194.03;1664403;84;25837;-75
2022/04/27 03:50:36;;;;;;;27.67;12.18;;;;;;;8.87;54.38;101199.34;1640227;86;25839;-74
2022/04/27 03:53:02;;;;;;;28.07;12.80;;;;;;;8.87;54.42;101201.55;1665640;84;98794;-75
2022/04/27 03:55:29;;;;;;;30.40;12.45;;;;;;;8.86;54.45;101199.80;1663012;84;26584;-74
2022/04/27 03:57:55;;;;;;;29.63;11.65;;;;;;;8.87;54.50;101195.33;1655845;85;98914;-74
2022/04/27 04:00:22;;;;;;;23.25;10.85;;;;;;;8.87;54.56;101202.89;1662724;84;25969;-74
2022/04/27 04:02:50;;;;;;;20.92;11.45;;;;;;;8.87;54.61;101209.56;1663221;84;26738;-74
2022/04/27 04:05:17;;;;;;;33.70;12.50;;;;;;;8.89;54.64;101212.20;1666023;83;98534;-75
2022/04/27 04:07:45;;;;;;;26.23;12.98;;;;;;;8.89;54.65;101210.86;1647388;86;26113;-74
2022/04/27 04:10:12;;;;;;;23.83;12.20;;;;;;;8.88;54.72;101214.45;1665815;84;98922;-74
2022/04/27 04:12:38;;;;;;;28.98;12.73;;;;;;;8.89;54.79;101219.77;1642669;85;25720;-74
2022/04/27 04:15:05;;;;;;;28.45;13.58;;;;;;;8.91;54.86;101221.05;1662883;84;98915;-74
2022/04/27 04:17:31;;;;;;;19.87;10.98;;;;;;;8.93;54.89;101219.22;1642699;85;26706;-74
2022/04/27 04:19:57;;;;;;;30.12;11.85;;;;;;;8.95;54.88;101224.06;1668129;84;25755;-74
2022/04/27 04:22:25;;;;;;;25.35;12.58;;;;;;;8.92;54.93;101225.48;1644137;85;98794;-74
2022/04/27 04:30:21;;;;;;;22.32;11.80;;;;;;;8.97;55.06;101232.92;1648109;85;25971;-74
2022/04/27 04:32:48;;;;;;;23.38;12.05;;;;;;;8.96;55.13;101235.17;1672559;84;25836;-74
2022/04/27 04:35:16;;;;;;;31.12;12.45;;;;;;;8.99;55.16;101246.67;1647318;85;98348;-75
2022/04/27 04:37:47;;;;;;;29.45;12.68;;;;;;;9.01;55.16;101244.83;1668635;84;25878;-74
2022/04/27 04:40:13;;;;;;;30.05;13.03;;;;;;;9.03;55.23;101251.01;1661988;84;98839;-75
2022/04/27 04:42:39;;;;;;;27.77;12.33;;;;;;;9.05;55.20;101245.16;1647930;85;25819;-76
2022/04/27 04:45:07;;;;;;;24.60;11.83;;;;;;;9.07;55.21;101246.00;1658842;85;98979;-74
2022/04/27 04:47:34;;;;;;;28.80;13.25;;;;;;;9.08;55.25;101246.87;1668975;84;27453;-75
2022/04/27 04:50:03;;;;;;;25.68;12.88;;;;;;;9.10;55.31;101249.05;1672373;84;26615;-76
2022/04/27 04:52:33;;;;;;;28.85;11.73;;;;;;;9.13;55.28;101254.77;1670108;83;98791;-75
2022/04/27 04:54:58;;;;;;;25.05;12.33;;;;;;;9.16;55.33;101256.02;1673620;84;25804;-75
2022/04/27 04:57:24;;;;;;;34.48;13.85;;;;;;;9.19;55.35;101259.48;1664319;84;98970;-74
2022/04/27 04:59:51;;;;;;;26.27;12.07;;;;;;;9.21;55.39;101253.64;1672625;84;29631;-75
2022/04/27 05:02:19;;;;;;;32.00;13.20;;;;;;;9.27;55.35;101261.95;1643877;84;27333;-76
2022/04/27 05:04:45;;;;;;;27.65;12.93;;;;;;;9.29;55.38;101265.00;1646222;86;98798;-74
2022/04/27 05:07:11;;;;;;;27.15;11.33;;;;;;;9.34;55.41;101256.38;1639706;85;25836;-75
2022/04/27 05:09:39;;;;;;;40.12;12.82;;;;;;;9.39;55.44;101262.48;1669710;84;99039;-75
2022/04/27 05:12:07;;;;;;;38.53;13.35;;;;;;;9.44;55.38;101267.70;1646061;85;27495;-74
2022/04/27 05:14:34;;;;;;;27.73;12.78;;;;;;;9.46;55.44;101273.01;1662235;84;25978;-75
2022/04/27 05:17:00;;;;;;;31.20;12.50;;;;;;;9.51;55.42;101269.73;1667395;83;98795;-76
2022/04/27 05:19:26;;;;;;;26.12;13.70;;;;;;;9.54;55.44;101275.88;1647218;85;25699;-75
2022/04/27 05:21:53;;;;;;;27.50;12.80;;;;;;;9.55;55.44;101283.45;1634566;85;98929;-75
2022/04/27 05:24:24;;;;;;;26.10;11.75;;;;;;;9.56;55.46;101283.41;1671137;83;27542;-76
2022/04/27 05:26:50;;;;;;;26.87;12.65;;;;;;;9.59;55.52;101292.69;1674612;83;25951;-76
2022/04/27 05:32:00;;;;;;;28.80;13.03;;;;;;;9.73;55.59;101297.63;1658728;84;27521;-77
2022/04/27 05:34:30;;;;;;;29.77;13.40;;;;;;;9.80;55.54;101294.31;1639235;85;98871;-76
2022/04/27 05:36:57;;;;;;;32.40;14.38;;;;;;;9.81;55.54;101300.95;1668564;84;27498;-76
2022/04/27 05:39:23;;;;;;;38.33;16.05;;;;;;;9.87;55.55;101302.12;1655828;84;99100;-73
2022/04/27 05:41:51;;;;;;;31.27;14.25;;;;;;;9.94;55.55;101305.48;1669707;84;25800;-75
2022/04/27 05:44:22;;;;;;;33.02;15.60;;;;;;;9.97;55.54;101300.91;1647727;85;25813;-75
2022/04/27 05:46:51;;;;;;;44.33;15.80;;;;;;;10.04;55.55;101304.28;1659888;84;98894;-75
2022/04/27 05:49:17;;;;;;;39.08;15.23;;;;;;;10.11;55.53;101307.19;1647261;85;27513;-76
2022/04/27 05:51:47;;;;;;;32.58;13.58;;;;;;;10.19;55.55;101302.94;1662657;84;99243;-74
2022/04/27 05:54:14;;;;;;;25.50;13.25;;;;;;;10.25;55.47;101313.03;1671884;83;25751;-74
2022/04/27 05:56:42;;;;;;;31.00;13.28;;;;;;;10.27;55.45;101310.30;1670891;83;26798;-74
2022/04/27 05:59:10;;;;;;;36.00;14.18;;;;;;;10.30;55.48;101321.80;1661169;84;99026;-74
2022/04/27 06:01:38;;;;;;;32.15;14.03;;;;;;;10.36;55.45;101314.03;1642680;85;27639;-74
2022/04/27 06:04:11;;;;;;;32.03;13.83;;;;;;;10.40;55.43;101321.05;1659215;84;99154;-71
2022/04/27 06:06:38;;;;;;;28.23;13.68;;;;;;;10.46;55.43;101322.16;1643343;85;26043;-73
2022/04/27 06:09:04;;;;;;;37.88;14.23;;;;;;;10.52;55.43;101325.98;1667296;83;99146;-74
2022/04/27 06:11:30;;;;;;;27.80;13.72;;;;;;;10.62;55.39;101326.56;1666078;84;26356;-73
2022/04/27 06:13:56;;;;;;;27.73;13.85;;;;;;;10.66;55.32;101328.22;1664189;84;27530;-73
2022/04/27 06:16:24;;;;;;;24.90;12.58;;;;;;;10.73;55.31;101324.41;1673036;83;99122;-74
2022/04/27 06:18:50;;;;;;;29.50;12.95;;;;;;;10.80;55.27;101325.08;1677452;84;25778;-74
2022/04/27 06:21:19;;;;;;;28.47;13.18;;;;;;;10.87;55.22;101334.67;1662440;85;98440;-74
2022/04/27 06:23:46;;;;;;;30.50;13.78;;;;;;;10.93;55.18;101335.34;1645970;85;25854;-75
2022/04/27 06:26:11;;;;;;;26.80;13.25;;;;;;;11.00;55.12;101341.38;1666846;84;27477;-75
2022/04/27 06:28:38;;;;;;;29.30;12.88;;;;;;;11.02;54.97;101347.56;1649522;85;99131;-77
2022/04/27 06:31:04;;;;;;;23.47;13.13;;;;;;;10.98;54.93;101352.63;1668957;84;25742;-76
2022/04/27 06:33:30;;;;;;;25.85;12.53;;;;;;;10.98;54.96;101348.59;1672128;83;99269;-76
2022/04/27 06:35:58;;;;;;;25.48;12.35;;;;;;;11.00;54.88;101347.62;1671745;83;26136;-75
2022/04/27 06:38:25;;;;;;;22.37;12.23;;;;;;;11.02;54.83;101352.47;1671178;83;27866;-73
2022/04/27 06:40:50;;;;;;;29.63;12.85;;;;;;;11.08;54.90;101348.70;1660188;84;99178;-73
2022/04/27 06:43:19;;;;;;;27.27;12.23;;;;;;;11.17;54.81;101351.06;1643804;86;25564;-73
2022/04/27 06:45:44;;;;;;;28.47;12.25;;;;;;;11.24;54.76;101349.92;1656194;85;99178;-73
2022/04/27 06:48:14;;;;;;;29.72;12.43;;;;;;;11.30;54.66;101355.08;1673241;84;26380;-73
2022/04/27 06:50:42;;;;;;;26.05;12.25;;;;;;;11.38;54.67;101350.78;1671930;84;26876;-72
2022/04/27 06:53:09;;;;;;;26.90;11.78;;;;;;;11.46;54.52;101355.87;1670618;84;99134;-72
2022/04/27 06:55:38;;;;;;;28.60;11.73;;;;;;;11.52;54.46;101360.56;1666352;85;25755;-73
2022/04/27 06:58:06;;;;;;;31.42;12.65;;;;;;;11.55;54.37;101362.27;1647396;85;99128;-73
2022/04/27 07:00:33;;;;;;;25.45;10.93;;;;;;;11.60;54.35;101361.16;1636593;86;25829;-72
2022/04/27 07:02:59;;;;;;;25.30;11.43;;;;;;;11.67;54.26;101367.19;1664284;84;98409;-72
2022/04/27 07:05:26;;;;;;;25.88;11.08;;;;;;;11.75;54.19;101369.13;1663082;84;25921;-73
2022/04/27 07:07:55;;;;;;;28.23;12.37;;;;;;;11.87;54.15;101375.43;1668437;83;25742;-73
2022/04/27 07:10:22;;;;;;;28.98;12.65;;;;;;;11.99;54.09;101372.75;1663126;85;99019;-73
2022/04/27 07:12:47;;;;;;;30.52;12.37;;;;;;;12.12;53.99;101370.02;1651292;85;25754;-72
2022/04/27 07:15:14;;;;;;;38.95;13.25;;;;;;;12.20;53.74;101380.47;1650455;85;99178;-72
2022/04/27 07:17:40;;;;;;;29.77;13.15;;;;;;;12.15;53.67;101382.45;1641610;85;26621;-73
2022/04/27 07:20:08;;;;;;;36.83;13.18;;;;;;;12.10;53.57;101386.66;1654797;85;25746;-73
2022/04/27 07:22:35;;;;;;;26.73;11.93;;;;;;;12.12;53.70;101388.82;1646713;85;99167;-73
2022/04/27 07:25:04;;;;;;;29.63;13.38;;;;;;;12.17;53.66;101381.46;1676314;84;25804;-72
2022/04/27 07:27:31;;;;;;;31.10;14.33;;;;;;;12.31;53.66;101386.30;1660090;84;99305;-74
2022/04/27 07:30:00;;;;;;;30.25;13.00;;;;;;;12.48;53.66;101387.00;1664862;84;26879;-74
2022/04/27 07:32:26;;;;;;;31.15;14.10;;;;;;;12.65;53.54;101389.89;1645373;85;26195;-74
2022/04/27 07:34:52;;;;;;;26.17;12.82;;;;;;;12.76;53.46;101389.45;1635031;85;99057;-74
2022/04/27 07:37:18;;;;;;;28.42;13.00;;;;;;;12.95;53.45;101395.38;1649652;85;26513;-73
2022/04/27 07:39:45;;;;;;;39.05;14.05;;;;;;;13.10;53.20;101392.95;1668151;84;98985;-74
2022/04/27 07:42:11;;;;;;;27.13;12.88;;;;;;;13.08;52.93;101402.44;1647828;85;25706;-74
2022/04/27 07:44:41;;;;;;;28.10;12.85;;;;;;;13.09;52.84;101397.93;1648347;85;25752;-74
2022/04/27 07:47:08;;;;;;;35.43;12.33;;;;;;;13.10;52.73;101403.72;1646773;85;99005;-74
2022/04/27 07:49:36;;;;;;;29.25;13.90;;;;;;;13.14;52.70;101403.52;1677151;83;25883;-75
2022/04/27 07:52:03;;;;;;;34.50;13.75;;;;;;;13.27;52.63;101400.75;1665598;84;99022;-75
2022/04/27 07:54:29;;;;;;;31.17;12.53;;;;;;;13.32;52.57;101401.44;1665532;85;25812;-73
2022/04/27 07:56:56;;;;;;;28.77;12.85;;;;;;;13.48;52.52;101400.78;1666418;84;26507;-74
2022/04/27 07:59:22;;;;;;;40.98;12.25;;;;;;;13.57;52.33;101405.77;1648622;85;98958;-74
2022/04/27 08:01:50;;;;;;;26.35;12.82;;;;;;;13.60;52.22;101409.67;1667434;84;25775;-73
2022/04/27 08:04:16;;;;;;;28.85;12.80;;;;;;;13.79;52.27;101402.53;1649380;85;99277;-74
2022/04/27 08:06:44;;;;;;;28.20;12.55;;;;;;;13.92;52.10;101410.94;1646049;85;26720;-74
2022/04/27 08:09:09;;;;;;;27.15;11.65;;;;;;;14.03;51.93;101403.72;1645912;85;99196;-73
2022/04/27 08:11:41;;;;;;;34.50;12.30;;;;;;;14.15;51.94;101405.38;1656528;85;25843;-73
2022/04/27 08:14:06;;;;;;;;;;;;;;;14.24;51.63;101409.00;1653602;86;25858;-74
2022/04/27 08:16:34;;;;;;;28.23;11.30;;;;;;;14.36;51.52;101414.77;1656978;85;84231;-75
2022/04/27 08:19:00;;;;;;;29.42;10.30;;;;;;;14.34;51.32;101413.97;1645588;85;25739;-73
2022/04/27 08:21:27;;;;;;;29.23;10.32;;;;;;;14.33;50.99;101421.19;1646927;85;99249;-73
2022/04/27 08:23:56;;;;;;;27.70;10.25;;;;;;;14.32;50.95;101423.48;1670079;83;25755;-72
2022/04/27 08:26:26;;;;;;;17.92;9.95;;;;;;;14.39;50.75;101420.89;1669975;83;26191;-73
2022/04/27 08:28:51;;;;;;;25.65;10.70;;;;;;;14.54;50.66;101424.25;1670799;84;98859;-74
2022/04/27 08:31:21;;;;;;;24.63;11.10;;;;;;;14.58;50.34;101420.47;1671874;84;26545;-72
2022/04/27 08:33:49;;;;;;;20.27;9.60;;;;;;;14.62;50.21;101425.23;1664868;84;98977;-73
2022/04/27 08:36:15;;;;;;;23.27;10.28;;;;;;;14.67;49.95;101425.02;1673488;83;25568;-72
2022/04/27 08:38:41;;;;;;;24.25;9.53;;;;;;;14.64;49.36;101429.21;1677570;84;25627;-74
2022/04/27 08:41:11;;;;;;;19.30;9.05;;;;;;;14.61;49.22;101427.53;1674290;83;98880;-71
2022/04/27 08:43:40;;;;;;;23.53;8.37;;;;;;;14.68;49.17;101420.02;1673951;84;25903;-72
2022/04/27 08:46:10;;;;;;;15.45;8.18;;;;;;;14.89;48.94;101425.26;1673603;83;98012;-73
2022/04/27 08:48:37;;;;;;;16.82;8.20;;;;;;;15.11;48.97;101418.80;1676472;84;26447;-73
2022/04/27 08:51:05;;;;;;;26.02;8.60;;;;;;;15.29;48.63;101419.23;1674603;84;99119;-72
2022/04/27 08:53:33;;;;;;;19.40;6.97;;;;;;;15.45;48.31;101422.02;1678256;83;27448;-73
2022/04/27 08:56:00;;;;;;;22.75;8.18;;;;;;;15.52;48.08;101418.93;1675071;84;25805;-73
2022/04/27 08:58:26;;;;;;;15.38;8.40;;;;;;;15.68;47.93;101418.13;1664545;85;99282;-73
2022/04/27 09:00:52;;;;;;;13.80;7.58;;;;;;;15.81;47.73;101417.41;1646815;85;25812;-72
2022/04/27 09:03:33;;;;;;;17.35;7.08;;;;;;;15.99;47.58;101420.97;1659248;85;99449;-74
2022/04/27 09:06:16;;;;;;;19.23;8.78;;;;;;;16.16;47.34;101417.36;1657589;84;27431;-71
2022/04/27 09:08:55;;;;;;;22.87;7.67;;;;;;;16.14;46.71;101422.84;1647415;86;25864;-72
2022/04/27 09:11:29;;;;;;;10.72;7.10;;;;;;;16.20;46.74;101413.05;1664494;84;98734;-73
2022/04/27 09:13:59;;;;;;;20.97;7.67;;;;;;;16.30;46.51;101415.25;1653586;85;26146;-74
2022/04/27 09:22:11;;;;;;;8.95;4.53;;;;;;;16.67;45.72;101409.57;1659662;84;99014;-73
2022/04/27 09:24:54;;;;;;;15.43;8.35;;;;;;;16.76;45.17;101406.34;1648263;85;25734;-73
2022/04/27 09:27:23;;;;;;;11.33;5.87;;;;;;;16.80;44.45;101409.27;1662378;84;99085;-73
2022/04/27 09:30:07;;;;;;;19.05;6.53;;;;;;;16.76;44.26;101404.98;1644093;85;26597;-74
2022/04/27 09:32:35;;;;;;;11.40;5.83;;;;;;;16.85;44.05;101406.30;1662839;84;27497;-72
2022/04/27 09:35:03;;;;;;;12.70;6.50;;;;;;;17.02;43.92;101412.97;1662234;85;98927;-73
2022/04/27 09:37:38;;;;;;;14.20;5.40;;;;;;;17.14;43.74;101415.45;1642065;86;26579;-72
2022/04/27 09:40:16;;;;;;;10.50;5.30;;;;;;;17.29;43.60;101404.19;1662802;84;98815;-71
2022/04/27 09:42:43;;;;;;;6.53;4.97;;;;;;;17.33;43.33;101405.75;1646312;86;26443;-74
2022/04/27 09:45:26;;;;;;;16.40;5.42;;;;;;;17.25;42.84;101411.62;1673192;84;99023;-73
2022/04/27 09:48:03;;;;;;;10.08;4.80;;;;;;;17.15;42.70;101412.65;1657313;84;25754;-72
2022/04/27 09:50:58;;;;;;;6.97;5.08;;;;;;;17.05;42.42;101416.85;1648051;85;26507;-75
2022/04/27 09:53:23;;;;;;;8.23;4.58;;;;;;;17.05;42.48;101417.34;1676373;84;98622;-72
2022/04/27 09:55:53;;;;;;;7.95;4.60;;;;;;;17.01;41.81;101411.70;1677994;83;26898;-73
2022/04/27 09:58:19;;;;;;;11.15;5.80;;;;;;;16.86;41.65;101413.45;1673680;83;98902;-72
2022/04/27 10:00:48;;;;;;;9.98;4.97;;;;;;;16.82;41.46;101408.70;1659324;84;25978;-73
2022/04/27 10:03:22;;;;;;;12.70;5.00;;;;;;;16.83;41.41;101409.57;1655203;85;99008;-73
2022/04/27 10:05:50;;;;;;;10.75;6.08;;;;;;;16.94;41.42;101405.77;1665977;85;26577;-73
2022/04/27 10:08:18;;;;;;;7.03;4.78;;;;;;;17.05;41.26;101407.86;1647990;85;25823;-72
2022/04/27 10:10:45;;;;;;;9.25;4.10;;;;;;;17.15;40.99;101409.94;1665797;84;98731;-73
2022/04/27 10:13:15;;;;;;;7.85;4.67;;;;;;;17.31;40.80;101407.20;1661040;84;26477;-73
2022/04/27 10:15:43;;;;;;;9.83;4.55;;;;;;;17.51;40.88;101409.59;1662966;84;99048;-72
2022/04/27 10:18:15;;;;;;;13.03;5.22;;;;;;;17.66;40.26;101411.90;1666030;84;25800;-72
2022/04/27 10:20:43;;;;;;;9.60;4.17;;;;;;;17.65;40.26;101404.69;1672904;84;25722;-72
2022/04/27 10:23:24;;;;;;;13.05;5.08;;;;;;;17.70;40.01;101403.97;1675755;84;98728;-73
2022/04/27 10:26:08;;;;;;;;;;;;;;;17.74;39.95;101408.23;1672999;84;26231;-73
2022/04/27 10:28:45;;;;;;;9.00;3.80;;;;;;;17.87;39.72;101408.36;1647690;85;85035;-73
2022/04/27 10:31:12;;;;;;;9.83;4.40;;;;;;;17.68;39.18;101411.32;1662026;84;26497;-73
2022/04/27 10:33:50;;;;;;;8.28;4.37;;;;;;;17.48;38.94;101407.06;1655955;85;98925;-72
2022/04/27 10:36:41;;;;;;;6.35;3.75;;;;;;;17.35;38.98;101416.89;1656513;84;28079;-72
2022/04/27 10:39:19;;;;;;;11.08;5.37;;;;;;;17.33;38.75;101416.59;1642015;85;98858;-71
2022/04/27 10:42:14;;;;;;;6.30;3.45;;;;;;;17.17;38.78;101414.78;1638723;85;25839;-73
2022/04/27 10:44:55;;;;;;;4.80;3.40;;;;;;;17.23;38.79;101415.39;1658644;85;26091;-72
2022/04/27 10:47:22;;;;;;;;;;;;;;;17.19;38.62;101411.50;1640844;85;98489;-71
2022/04/27 10:50:09;;;;;;;8.45;3.42;;;;;;;17.08;38.47;101411.26;1644219;85;29503;-72
2022/04/27 10:52:51;;;;;;;7.28;3.50;;;;;;;17.00;38.54;101410.83;1665654;84;98677;-72
2022/04/27 10:55:40;;;;;;;10.18;3.60;;;;;;;16.93;38.11;101412.15;1671435;83;26530;-70
2022/04/27 10:58:33;;;;;;;12.25;3.80;;;;;;;16.84;38.30;101411.32;1671954;83;98981;-73
2022/04/27 11:01:08;;;;;;;5.40;3.65;;;;;;;16.84;38.34;101407.26;1675995;84;25837;-72
2022/04/27 11:03:38;;;;;;;8.28;4.25;;;;;;;16.82;38.16;101410.05;1655448;84;98098;-71
2022/04/27 11:06:11;;;;;;;11.85;4.67;;;;;;;16.66;37.81;101411.02;1654036;85;26579;-73
2022/04/27 11:09:06;;;;;;;7.35;4.40;;;;;;;16.54;38.06;101414.77;1661512;84;25767;-72
2022/04/27 11:11:31;;;;;;;10.53;4.33;;;;;;;16.57;38.14;101411.02;1661724;85;98715;-72
2022/04/27 11:14:06;;;;;;;7.33;4.40;;;;;;;16.67;38.15;101412.76;1661521;85;25804;-71
2022/04/27 11:16:44;;;;;;;14.25;5.28;;;;;;;16.72;38.09;101412.02;1643893;85;99157;-72
2022/04/27 11:19:09;;;;;;;31.77;5.85;;;;;;;16.72;38.01;101414.72;1637227;85;25872;-72
2022/04/27 11:21:36;;;;;;;170.92;18.80;;;;;;;16.74;38.10;101410.09;1650715;85;99100;-71
2022/04/27 11:24:07;;;;;;;10.88;3.95;;;;;;;16.84;38.16;101414.03;1643713;85;25782;-71
2022/04/27 11:26:44;;;;;;;;;;;;;;;16.93;38.09;101413.50;1651004;85;25871;-73
2022/04/27 11:29:13;;;;;;;7.25;3.90;;;;;;;16.88;37.86;101412.89;1663743;84;85351;-74
2022/04/27 11:31:45;;;;;;;6.90;4.22;;;;;;;16.76;37.76;101406.82;1646187;85;26039;-75
2022/04/27 11:34:24;;;;;;;8.10;3.92;;;;;;;16.69;37.59;101404.94;1667419;85;98810;-71
2022/04/27 11:36:52;;;;;;;14.55;4.80;;;;;;;16.65;37.77;101403.85;1643545;85;26070;-72
2022/04/27 11:39:24;;;;;;;21.95;4.70;;;;;;;16.84;37.90;101396.43;1652208;85;99104;-72
2022/04/27 11:42:03;;;;;;;22.80;4.70;;;;;;;16.99;37.80;101400.96;1658055;85;28246;-71
2022/04/27 11:44:32;;;;;;;11.10;4.30;;;;;;;17.14;37.83;101405.97;1659237;84;25789;-74
2022/04/27 11:47:00;;;;;;;19.77;4.35;;;;;;;17.41;37.90;101403.46;1658643;84;98964;-70